sensor_id;sensor_type;location;lat;lon;timestamp;pressure;altitude;pressure_sealevel;temperature;humidity
73106;BME280;61559;50.476;15.588;2023-08-20T00:01:25;98020.45;;;17.40;80.73
73106;BME280;61559;50.476;15.588;2023-08-20T00:03:57;98019.00;;;17.38;80.92
73106;BME280;61559;50.476;15.588;2023-08-20T00:06:30;98020.20;;;17.36;80.90
73106;BME280;61559;50.476;15.588;2023-08-20T00:09:02;98022.55;;;17.33;80.87
73106;BME280;61559;50.476;15.588;2023-08-20T00:11:36;98026.08;;;17.30;81.04
73106;BME280;61559;50.476;15.588;2023-08-20T00:14:07;98026.34;;;17.29;81.25
73106;BME280;61559;50.476;15.588;2023-08-20T00:16:39;98025.94;;;17.28;81.27
73106;BME280;61559;50.476;15.588;2023-08-20T00:19:11;98031.05;;;17.27;81.19
73106;BME280;61559;50.476;15.588;2023-08-20T00:21:43;98032.40;;;17.25;81.18
73106;BME280;61559;50.476;15.588;2023-08-20T00:24:16;98037.38;;;17.21;81.30
73106;BME280;61559;50.476;15.588;2023-08-20T00:26:48;98038.95;;;17.16;81.21
73106;BME280;61559;50.476;15.588;2023-08-20T00:29:19;98036.52;;;17.13;81.22
73106;BME280;61559;50.476;15.588;2023-08-20T00:31:50;98037.31;;;17.12;81.49
73106;BME280;61559;50.476;15.588;2023-08-20T00:34:22;98035.89;;;17.12;81.54
73106;BME280;61559;50.476;15.588;2023-08-20T00:36:53;98033.74;;;17.12;81.53
73106;BME280;61559;50.476;15.588;2023-08-20T00:39:24;98035.67;;;17.12;81.37
73106;BME280;61559;50.476;15.588;2023-08-20T00:41:55;98034.21;;;17.10;81.62
73106;BME280;61559;50.476;15.588;2023-08-20T00:44:27;98034.13;;;17.07;81.83
73106;BME280;61559;50.476;15.588;2023-08-20T00:46:59;98033.15;;;17.00;82.38
73106;BME280;61559;50.476;15.588;2023-08-20T00:49:31;98034.52;;;16.92;82.46
73106;BME280;61559;50.476;15.588;2023-08-20T00:52:03;98035.77;;;16.89;82.56
73106;BME280;61559;50.476;15.588;2023-08-20T00:54:35;98033.58;;;16.88;82.45
73106;BME280;61559;50.476;15.588;2023-08-20T00:57:07;98031.94;;;16.87;82.46
73106;BME280;61559;50.476;15.588;2023-08-20T00:59:39;98030.46;;;16.88;82.38
73106;BME280;61559;50.476;15.588;2023-08-20T01:02:10;98036.63;;;16.87;82.19
73106;BME280;61559;50.476;15.588;2023-08-20T01:04:41;98033.75;;;16.86;82.22
73106;BME280;61559;50.476;15.588;2023-08-20T01:07:18;98035.73;;;16.85;82.18
73106;BME280;61559;50.476;15.588;2023-08-20T01:09:54;98038.23;;;16.83;82.39
73106;BME280;61559;50.476;15.588;2023-08-20T01:12:30;98040.08;;;16.83;82.50
73106;BME280;61559;50.476;15.588;2023-08-20T01:15:02;98040.89;;;16.80;82.28
73106;BME280;61559;50.476;15.588;2023-08-20T01:17:33;98038.82;;;16.77;82.34
73106;BME280;61559;50.476;15.588;2023-08-20T01:20:07;98043.46;;;16.76;82.53
73106;BME280;61559;50.476;15.588;2023-08-20T01:23:02;98044.41;;;16.75;82.73
73106;BME280;61559;50.476;15.588;2023-08-20T01:25:50;98047.85;;;16.73;82.57
73106;BME280;61559;50.476;15.588;2023-08-20T01:28:27;98050.17;;;16.71;82.43
73106;BME280;61559;50.476;15.588;2023-08-20T01:30:59;98049.08;;;16.68;82.26
73106;BME280;61559;50.476;15.588;2023-08-20T01:33:32;98047.76;;;16.66;82.77
73106;BME280;61559;50.476;15.588;2023-08-20T01:36:06;98049.41;;;16.64;83.01
73106;BME280;61559;50.476;15.588;2023-08-20T01:38:39;98047.67;;;16.62;83.07
73106;BME280;61559;50.476;15.588;2023-08-20T01:41:11;98045.89;;;16.61;83.14
73106;BME280;61559;50.476;15.588;2023-08-20T01:43:42;98047.55;;;16.60;82.74
73106;BME280;61559;50.476;15.588;2023-08-20T01:46:13;98050.77;;;16.58;82.57
73106;BME280;61559;50.476;15.588;2023-08-20T01:48:44;98049.16;;;16.56;82.79
73106;BME280;61559;50.476;15.588;2023-08-20T01:51:16;98045.85;;;16.54;82.64
73106;BME280;61559;50.476;15.588;2023-08-20T01:53:47;98047.73;;;16.53;82.86
73106;BME280;61559;50.476;15.588;2023-08-20T01:56:18;98049.05;;;16.52;83.13
73106;BME280;61559;50.476;15.588;2023-08-20T01:58:49;98045.72;;;16.50;83.53
73106;BME280;61559;50.476;15.588;2023-08-20T02:01:20;98041.38;;;16.45;83.59
73106;BME280;61559;50.476;15.588;2023-08-20T02:03:51;98044.84;;;16.41;83.70
73106;BME280;61559;50.476;15.588;2023-08-20T02:06:23;98044.52;;;16.37;83.78
73106;BME280;61559;50.476;15.588;2023-08-20T02:08:54;98044.31;;;16.35;83.93
73106;BME280;61559;50.476;15.588;2023-08-20T02:11:26;98042.52;;;16.35;83.99
73106;BME280;61559;50.476;15.588;2023-08-20T02:13:57;98041.52;;;16.34;84.03
73106;BME280;61559;50.476;15.588;2023-08-20T02:16:28;98044.30;;;16.32;84.14
73106;BME280;61559;50.476;15.588;2023-08-20T02:18:59;98046.15;;;16.32;84.10
73106;BME280;61559;50.476;15.588;2023-08-20T02:21:32;98050.77;;;16.32;84.07
73106;BME280;61559;50.476;15.588;2023-08-20T02:24:04;98054.32;;;16.31;84.02
73106;BME280;61559;50.476;15.588;2023-08-20T02:26:35;98056.52;;;16.31;83.88
73106;BME280;61559;50.476;15.588;2023-08-20T02:29:07;98053.52;;;16.29;83.67
73106;BME280;61559;50.476;15.588;2023-08-20T02:31:39;98051.70;;;16.28;83.62
73106;BME280;61559;50.476;15.588;2023-08-20T02:34:11;98052.30;;;16.29;83.72
73106;BME280;61559;50.476;15.588;2023-08-20T02:36:42;98049.67;;;16.27;83.59
73106;BME280;61559;50.476;15.588;2023-08-20T02:39:15;98048.23;;;16.26;83.67
73106;BME280;61559;50.476;15.588;2023-08-20T02:41:47;98044.70;;;16.25;83.69
73106;BME280;61559;50.476;15.588;2023-08-20T02:44:18;98042.98;;;16.22;83.92
73106;BME280;61559;50.476;15.588;2023-08-20T02:46:49;98042.48;;;16.20;84.36
73106;BME280;61559;50.476;15.588;2023-08-20T02:49:20;98039.87;;;16.14;84.63
73106;BME280;61559;50.476;15.588;2023-08-20T02:51:51;98045.83;;;16.10;84.80
73106;BME280;61559;50.476;15.588;2023-08-20T02:54:22;98045.67;;;16.07;84.79
73106;BME280;61559;50.476;15.588;2023-08-20T02:56:56;98049.94;;;16.05;84.69
73106;BME280;61559;50.476;15.588;2023-08-20T02:59:27;98048.27;;;16.04;84.63
73106;BME280;61559;50.476;15.588;2023-08-20T03:01:58;98047.38;;;16.04;84.74
73106;BME280;61559;50.476;15.588;2023-08-20T03:04:29;98044.78;;;16.04;84.60
73106;BME280;61559;50.476;15.588;2023-08-20T03:07:01;98041.92;;;16.05;84.50
73106;BME280;61559;50.476;15.588;2023-08-20T03:09:32;98041.94;;;16.06;84.62
73106;BME280;61559;50.476;15.588;2023-08-20T03:12:04;98041.73;;;16.04;84.85
73106;BME280;61559;50.476;15.588;2023-08-20T03:14:35;98041.23;;;16.02;84.95
73106;BME280;61559;50.476;15.588;2023-08-20T03:17:06;98043.64;;;16.03;85.18
73106;BME280;61559;50.476;15.588;2023-08-20T03:19:47;98049.29;;;16.06;85.19
73106;BME280;61559;50.476;15.588;2023-08-20T03:22:25;98049.41;;;16.08;85.02
73106;BME280;61559;50.476;15.588;2023-08-20T03:24:57;98050.27;;;16.09;84.85
73106;BME280;61559;50.476;15.588;2023-08-20T03:27:31;98051.44;;;16.11;84.86
73106;BME280;61559;50.476;15.588;2023-08-20T03:30:03;98050.88;;;16.12;84.90
73106;BME280;61559;50.476;15.588;2023-08-20T03:32:35;98052.41;;;16.12;84.91
73106;BME280;61559;50.476;15.588;2023-08-20T03:35:07;98051.02;;;16.09;85.09
73106;BME280;61559;50.476;15.588;2023-08-20T03:37:38;98050.15;;;16.05;85.26
73106;BME280;61559;50.476;15.588;2023-08-20T03:40:11;98053.82;;;16.03;85.24
73106;BME280;61559;50.476;15.588;2023-08-20T03:42:42;98054.25;;;16.03;85.38
73106;BME280;61559;50.476;15.588;2023-08-20T03:45:13;98057.80;;;16.02;85.45
73106;BME280;61559;50.476;15.588;2023-08-20T03:47:44;98062.09;;;16.02;85.49
73106;BME280;61559;50.476;15.588;2023-08-20T03:50:17;98064.13;;;16.00;85.51
73106;BME280;61559;50.476;15.588;2023-08-20T03:52:48;98066.20;;;16.00;85.58
73106;BME280;61559;50.476;15.588;2023-08-20T03:55:19;98067.30;;;16.00;85.47
73106;BME280;61559;50.476;15.588;2023-08-20T03:57:50;98066.16;;;15.99;85.35
73106;BME280;61559;50.476;15.588;2023-08-20T04:00:21;98067.52;;;15.99;85.17
73106;BME280;61559;50.476;15.588;2023-08-20T04:02:53;98070.89;;;16.00;85.19
73106;BME280;61559;50.476;15.588;2023-08-20T04:05:24;98071.25;;;16.03;85.11
73106;BME280;61559;50.476;15.588;2023-08-20T04:07:55;98070.90;;;16.03;85.19
73106;BME280;61559;50.476;15.588;2023-08-20T04:10:27;98072.71;;;16.05;85.26
73106;BME280;61559;50.476;15.588;2023-08-20T04:12:58;98077.23;;;16.05;85.55
73106;BME280;61559;50.476;15.588;2023-08-20T04:15:29;98077.42;;;16.05;85.60
73106;BME280;61559;50.476;15.588;2023-08-20T04:18:00;98080.74;;;16.08;85.37
73106;BME280;61559;50.476;15.588;2023-08-20T04:20:32;98076.20;;;16.10;85.35
73106;BME280;61559;50.476;15.588;2023-08-20T04:23:03;98077.89;;;16.11;85.40
73106;BME280;61559;50.476;15.588;2023-08-20T04:25:36;98080.97;;;16.13;85.31
73106;BME280;61559;50.476;15.588;2023-08-20T04:28:07;98083.03;;;16.15;85.48
73106;BME280;61559;50.476;15.588;2023-08-20T04:30:38;98080.45;;;16.15;85.53
73106;BME280;61559;50.476;15.588;2023-08-20T04:33:10;98082.44;;;16.18;85.52
73106;BME280;61559;50.476;15.588;2023-08-20T04:35:41;98084.39;;;16.18;85.44
73106;BME280;61559;50.476;15.588;2023-08-20T04:38:12;98085.23;;;16.19;85.46
73106;BME280;61559;50.476;15.588;2023-08-20T04:40:44;98084.77;;;16.21;85.80
73106;BME280;61559;50.476;15.588;2023-08-20T04:43:16;98084.73;;;16.25;85.81
73106;BME280;61559;50.476;15.588;2023-08-20T04:45:49;98084.86;;;16.30;85.78
73106;BME280;61559;50.476;15.588;2023-08-20T04:48:20;98082.77;;;16.34;85.58
73106;BME280;61559;50.476;15.588;2023-08-20T04:50:51;98078.02;;;16.40;85.48
73106;BME280;61559;50.476;15.588;2023-08-20T04:53:22;98080.12;;;16.47;85.37
73106;BME280;61559;50.476;15.588;2023-08-20T04:55:53;98081.11;;;16.53;85.37
73106;BME280;61559;50.476;15.588;2023-08-20T04:58:24;98075.04;;;16.62;85.36
73106;BME280;61559;50.476;15.588;2023-08-20T05:00:55;98076.83;;;16.70;85.32
73106;BME280;61559;50.476;15.588;2023-08-20T05:03:27;98076.45;;;16.78;85.17
73106;BME280;61559;50.476;15.588;2023-08-20T05:05:58;98078.25;;;16.87;85.23
73106;BME280;61559;50.476;15.588;2023-08-20T05:08:29;98076.55;;;16.96;85.05
73106;BME280;61559;50.476;15.588;2023-08-20T05:11:00;98077.52;;;17.05;85.19
73106;BME280;61559;50.476;15.588;2023-08-20T05:13:33;98082.71;;;17.14;85.13
73106;BME280;61559;50.476;15.588;2023-08-20T05:16:04;98085.51;;;17.22;85.30
73106;BME280;61559;50.476;15.588;2023-08-20T05:18:35;98086.09;;;17.30;85.39
73106;BME280;61559;50.476;15.588;2023-08-20T05:21:06;98085.39;;;17.40;85.26
73106;BME280;61559;50.476;15.588;2023-08-20T05:23:37;98083.59;;;17.48;85.18
73106;BME280;61559;50.476;15.588;2023-08-20T05:26:09;98085.52;;;17.57;85.26
73106;BME280;61559;50.476;15.588;2023-08-20T05:28:40;98090.90;;;17.67;85.29
73106;BME280;61559;50.476;15.588;2023-08-20T05:31:11;98093.80;;;17.77;85.41
73106;BME280;61559;50.476;15.588;2023-08-20T05:33:43;98098.11;;;17.89;85.36
73106;BME280;61559;50.476;15.588;2023-08-20T05:36:15;98100.13;;;18.00;85.21
73106;BME280;61559;50.476;15.588;2023-08-20T05:38:46;98100.36;;;18.11;85.27
73106;BME280;61559;50.476;15.588;2023-08-20T05:41:17;98100.02;;;18.24;85.23
73106;BME280;61559;50.476;15.588;2023-08-20T05:43:48;98099.63;;;18.38;85.13
73106;BME280;61559;50.476;15.588;2023-08-20T05:46:19;98098.02;;;18.51;85.21
73106;BME280;61559;50.476;15.588;2023-08-20T05:48:50;98099.23;;;18.62;84.83
73106;BME280;61559;50.476;15.588;2023-08-20T05:51:21;98101.48;;;18.71;84.59
73106;BME280;61559;50.476;15.588;2023-08-20T05:53:52;98106.23;;;18.80;84.61
73106;BME280;61559;50.476;15.588;2023-08-20T05:56:23;98105.30;;;18.95;84.86
73106;BME280;61559;50.476;15.588;2023-08-20T05:58:55;98102.45;;;19.13;84.82
73106;BME280;61559;50.476;15.588;2023-08-20T06:01:26;98101.25;;;19.31;84.88
73106;BME280;61559;50.476;15.588;2023-08-20T06:03:57;98104.39;;;19.49;85.09
73106;BME280;61559;50.476;15.588;2023-08-20T06:06:29;98097.92;;;19.64;84.53
73106;BME280;61559;50.476;15.588;2023-08-20T06:09:00;98096.73;;;19.80;84.01
73106;BME280;61559;50.476;15.588;2023-08-20T06:11:38;98095.45;;;19.96;83.85
73106;BME280;61559;50.476;15.588;2023-08-20T06:14:09;98093.27;;;20.11;83.84
73106;BME280;61559;50.476;15.588;2023-08-20T06:16:41;98092.85;;;20.26;83.80
73106;BME280;61559;50.476;15.588;2023-08-20T06:19:12;98092.84;;;20.41;83.82
73106;BME280;61559;50.476;15.588;2023-08-20T06:21:43;98095.86;;;20.56;83.54
73106;BME280;61559;50.476;15.588;2023-08-20T06:24:14;98099.53;;;20.71;83.24
73106;BME280;61559;50.476;15.588;2023-08-20T06:26:46;98095.39;;;20.84;83.12
73106;BME280;61559;50.476;15.588;2023-08-20T06:29:17;98099.34;;;20.98;82.89
73106;BME280;61559;50.476;15.588;2023-08-20T06:31:48;98104.77;;;21.10;82.53
73106;BME280;61559;50.476;15.588;2023-08-20T06:34:20;98098.09;;;21.22;82.21
73106;BME280;61559;50.476;15.588;2023-08-20T06:36:53;98098.66;;;21.35;81.75
73106;BME280;61559;50.476;15.588;2023-08-20T06:39:24;98101.00;;;21.47;81.37
73106;BME280;61559;50.476;15.588;2023-08-20T06:41:55;98103.55;;;21.57;80.70
73106;BME280;61559;50.476;15.588;2023-08-20T06:44:27;98106.61;;;21.69;80.47
73106;BME280;61559;50.476;15.588;2023-08-20T06:46:58;98109.06;;;21.79;80.05
73106;BME280;61559;50.476;15.588;2023-08-20T06:49:29;98108.16;;;21.90;79.89
73106;BME280;61559;50.476;15.588;2023-08-20T06:52:00;98106.53;;;22.02;79.97
73106;BME280;61559;50.476;15.588;2023-08-20T06:54:33;98106.30;;;22.14;79.98
73106;BME280;61559;50.476;15.588;2023-08-20T06:57:04;98106.68;;;22.29;79.99
73106;BME280;61559;50.476;15.588;2023-08-20T06:59:35;98107.13;;;22.45;80.05
73106;BME280;61559;50.476;15.588;2023-08-20T07:02:06;98110.69;;;22.62;79.43
73106;BME280;61559;50.476;15.588;2023-08-20T07:04:38;98112.26;;;22.81;79.17
73106;BME280;61559;50.476;15.588;2023-08-20T07:07:09;98112.91;;;23.02;79.00
73106;BME280;61559;50.476;15.588;2023-08-20T07:09:40;98114.75;;;23.25;77.91
73106;BME280;61559;50.476;15.588;2023-08-20T07:12:11;98119.39;;;23.46;77.47
73106;BME280;61559;50.476;15.588;2023-08-20T07:14:42;98115.20;;;23.64;76.24
73106;BME280;61559;50.476;15.588;2023-08-20T07:17:13;98117.82;;;23.80;74.95
73106;BME280;61559;50.476;15.588;2023-08-20T07:19:45;98119.14;;;23.96;74.94
73106;BME280;61559;50.476;15.588;2023-08-20T07:22:16;98118.27;;;24.11;74.48
73106;BME280;61559;50.476;15.588;2023-08-20T07:24:47;98120.35;;;24.26;74.34
73106;BME280;61559;50.476;15.588;2023-08-20T07:27:18;98114.27;;;24.41;74.00
73106;BME280;61559;50.476;15.588;2023-08-20T07:29:49;98117.90;;;24.56;74.14
73106;BME280;61559;50.476;15.588;2023-08-20T07:32:21;98121.52;;;24.71;73.53
73106;BME280;61559;50.476;15.588;2023-08-20T07:34:52;98122.05;;;24.84;71.08
73106;BME280;61559;50.476;15.588;2023-08-20T07:37:23;98123.59;;;24.95;70.46
73106;BME280;61559;50.476;15.588;2023-08-20T07:39:55;98125.86;;;25.06;70.52
73106;BME280;61559;50.476;15.588;2023-08-20T07:42:26;98130.08;;;25.16;70.33
73106;BME280;61559;50.476;15.588;2023-08-20T07:44:57;98132.51;;;25.24;69.34
73106;BME280;61559;50.476;15.588;2023-08-20T07:47:28;98138.12;;;25.28;68.40
73106;BME280;61559;50.476;15.588;2023-08-20T07:49:59;98135.90;;;25.33;68.64
73106;BME280;61559;50.476;15.588;2023-08-20T07:52:33;98138.34;;;25.39;68.56
73106;BME280;61559;50.476;15.588;2023-08-20T07:55:04;98139.73;;;25.45;67.67
73106;BME280;61559;50.476;15.588;2023-08-20T07:57:35;98137.20;;;25.51;67.41
73106;BME280;61559;50.476;15.588;2023-08-20T08:00:09;98137.21;;;25.58;67.72
73106;BME280;61559;50.476;15.588;2023-08-20T08:02:43;98140.48;;;25.65;67.76
73106;BME280;61559;50.476;15.588;2023-08-20T08:05:16;98141.35;;;25.72;66.85
73106;BME280;61559;50.476;15.588;2023-08-20T08:07:47;98143.92;;;25.77;66.45
73106;BME280;61559;50.476;15.588;2023-08-20T08:10:19;98148.27;;;25.82;66.19
73106;BME280;61559;50.476;15.588;2023-08-20T08:12:50;98151.67;;;25.89;66.56
73106;BME280;61559;50.476;15.588;2023-08-20T08:15:21;98152.55;;;25.98;66.29
73106;BME280;61559;50.476;15.588;2023-08-20T08:17:53;98156.52;;;26.07;66.28
73106;BME280;61559;50.476;15.588;2023-08-20T08:20:24;98154.94;;;26.14;66.77
73106;BME280;61559;50.476;15.588;2023-08-20T08:22:55;98159.33;;;26.21;66.41
73106;BME280;61559;50.476;15.588;2023-08-20T08:25:26;98154.34;;;26.27;66.56
73106;BME280;61559;50.476;15.588;2023-08-20T08:27:57;98154.69;;;26.34;66.32
73106;BME280;61559;50.476;15.588;2023-08-20T08:30:30;98153.70;;;26.41;65.82
73106;BME280;61559;50.476;15.588;2023-08-20T08:33:02;98152.56;;;26.49;65.34
73106;BME280;61559;50.476;15.588;2023-08-20T08:35:34;98155.16;;;26.57;65.07
73106;BME280;61559;50.476;15.588;2023-08-20T08:38:06;98159.36;;;26.66;64.54
73106;BME280;61559;50.476;15.588;2023-08-20T08:40:37;98154.29;;;26.73;63.32
73106;BME280;61559;50.476;15.588;2023-08-20T08:43:11;98155.01;;;26.82;63.01
73106;BME280;61559;50.476;15.588;2023-08-20T08:45:48;98150.59;;;26.88;62.59
73106;BME280;61559;50.476;15.588;2023-08-20T08:48:20;98153.81;;;26.90;62.62
73106;BME280;61559;50.476;15.588;2023-08-20T08:50:52;98156.81;;;26.92;62.22
73106;BME280;61559;50.476;15.588;2023-08-20T08:53:25;98158.69;;;26.93;62.15
73106;BME280;61559;50.476;15.588;2023-08-20T08:55:56;98154.28;;;26.95;62.07
73106;BME280;61559;50.476;15.588;2023-08-20T08:58:27;98154.80;;;26.97;61.62
73106;BME280;61559;50.476;15.588;2023-08-20T09:00:59;98156.24;;;26.97;61.27
73106;BME280;61559;50.476;15.588;2023-08-20T09:03:32;98158.70;;;27.00;61.57
73106;BME280;61559;50.476;15.588;2023-08-20T09:06:09;98162.22;;;27.07;61.38
73106;BME280;61559;50.476;15.588;2023-08-20T09:08:40;98163.48;;;27.15;61.59
73106;BME280;61559;50.476;15.588;2023-08-20T09:11:12;98164.89;;;27.21;61.92
73106;BME280;61559;50.476;15.588;2023-08-20T09:13:43;98169.46;;;27.24;61.59
73106;BME280;61559;50.476;15.588;2023-08-20T09:16:15;98168.16;;;27.25;61.41
73106;BME280;61559;50.476;15.588;2023-08-20T09:18:46;98167.30;;;27.28;61.39
73106;BME280;61559;50.476;15.588;2023-08-20T09:21:18;98168.17;;;27.29;61.18
73106;BME280;61559;50.476;15.588;2023-08-20T09:23:49;98167.95;;;27.29;61.20
73106;BME280;61559;50.476;15.588;2023-08-20T09:26:20;98169.73;;;27.32;61.65
73106;BME280;61559;50.476;15.588;2023-08-20T09:28:54;98174.96;;;27.35;60.54
73106;BME280;61559;50.476;15.588;2023-08-20T09:31:38;98175.98;;;27.37;60.88
73106;BME280;61559;50.476;15.588;2023-08-20T09:34:13;98171.02;;;27.41;61.63
73106;BME280;61559;50.476;15.588;2023-08-20T09:36:45;98168.73;;;27.48;61.42
73106;BME280;61559;50.476;15.588;2023-08-20T09:39:17;98174.06;;;27.55;61.61
73106;BME280;61559;50.476;15.588;2023-08-20T09:41:48;98176.27;;;27.60;61.81
73106;BME280;61559;50.476;15.588;2023-08-20T09:44:21;98177.48;;;27.65;61.63
73106;BME280;61559;50.476;15.588;2023-08-20T09:46:53;98186.04;;;27.69;61.43
73106;BME280;61559;50.476;15.588;2023-08-20T09:49:26;98189.27;;;27.73;61.14
73106;BME280;61559;50.476;15.588;2023-08-20T09:52:00;98185.07;;;27.75;61.33
73106;BME280;61559;50.476;15.588;2023-08-20T09:54:42;98187.81;;;27.74;61.69
73106;BME280;61559;50.476;15.588;2023-08-20T09:57:26;98183.77;;;27.73;61.73
73106;BME280;61559;50.476;15.588;2023-08-20T09:59:59;98185.96;;;27.69;61.34
73106;BME280;61559;50.476;15.588;2023-08-20T10:02:33;98184.11;;;27.66;61.42
73106;BME280;61559;50.476;15.588;2023-08-20T10:05:06;98178.86;;;27.64;61.56
73106;BME280;61559;50.476;15.588;2023-08-20T10:07:38;98170.52;;;27.66;61.02
73106;BME280;61559;50.476;15.588;2023-08-20T10:10:11;98173.34;;;27.68;61.12
73106;BME280;61559;50.476;15.588;2023-08-20T10:12:44;98172.61;;;27.75;61.28
73106;BME280;61559;50.476;15.588;2023-08-20T10:15:16;98174.71;;;27.84;60.88
73106;BME280;61559;50.476;15.588;2023-08-20T10:17:47;98168.05;;;27.98;59.92
73106;BME280;61559;50.476;15.588;2023-08-20T10:20:19;98170.89;;;28.09;59.41
73106;BME280;61559;50.476;15.588;2023-08-20T10:22:51;98169.97;;;28.18;59.10
73106;BME280;61559;50.476;15.588;2023-08-20T10:25:26;98168.52;;;28.28;58.45
73106;BME280;61559;50.476;15.588;2023-08-20T10:28:13;98164.77;;;28.41;58.56
73106;BME280;61559;50.476;15.588;2023-08-20T10:31:04;98164.45;;;28.50;57.97
73106;BME280;61559;50.476;15.588;2023-08-20T10:33:37;98164.06;;;28.61;57.86
73106;BME280;61559;50.476;15.588;2023-08-20T10:36:16;98164.93;;;28.69;57.46
73106;BME280;61559;50.476;15.588;2023-08-20T10:38:47;98163.30;;;28.76;57.26
73106;BME280;61559;50.476;15.588;2023-08-20T10:41:26;98165.82;;;28.87;56.50
73106;BME280;61559;50.476;15.588;2023-08-20T10:44:00;98163.42;;;28.96;56.14
73106;BME280;61559;50.476;15.588;2023-08-20T10:46:31;98164.46;;;29.00;55.92
73106;BME280;61559;50.476;15.588;2023-08-20T10:49:04;98163.73;;;29.10;55.84
73106;BME280;61559;50.476;15.588;2023-08-20T10:51:37;98164.60;;;29.18;55.51
73106;BME280;61559;50.476;15.588;2023-08-20T10:54:10;98166.36;;;29.21;55.25
73106;BME280;61559;50.476;15.588;2023-08-20T10:56:43;98168.17;;;29.21;54.14
73106;BME280;61559;50.476;15.588;2023-08-20T10:59:20;98169.92;;;29.21;54.32
73106;BME280;61559;50.476;15.588;2023-08-20T11:01:53;98170.05;;;29.22;53.87
73106;BME280;61559;50.476;15.588;2023-08-20T11:04:27;98169.95;;;29.19;53.62
73106;BME280;61559;50.476;15.588;2023-08-20T11:07:00;98170.77;;;29.17;53.97
73106;BME280;61559;50.476;15.588;2023-08-20T11:09:33;98166.52;;;29.20;53.63
73106;BME280;61559;50.476;15.588;2023-08-20T11:12:06;98167.08;;;29.23;53.04
73106;BME280;61559;50.476;15.588;2023-08-20T11:14:37;98164.50;;;29.29;53.22
73106;BME280;61559;50.476;15.588;2023-08-20T11:17:09;98157.23;;;29.35;52.07
73106;BME280;61559;50.476;15.588;2023-08-20T11:19:41;98155.13;;;29.38;52.68
73106;BME280;61559;50.476;15.588;2023-08-20T11:22:27;98150.05;;;29.34;52.62
73106;BME280;61559;50.476;15.588;2023-08-20T11:24:59;98149.96;;;29.35;51.93
73106;BME280;61559;50.476;15.588;2023-08-20T11:27:31;98151.90;;;29.33;51.17
73106;BME280;61559;50.476;15.588;2023-08-20T11:30:05;98150.98;;;29.30;51.53
73106;BME280;61559;50.476;15.588;2023-08-20T11:32:37;98148.61;;;29.27;52.19
73106;BME280;61559;50.476;15.588;2023-08-20T11:35:09;98149.46;;;29.24;51.43
73106;BME280;61559;50.476;15.588;2023-08-20T11:37:41;98154.45;;;29.18;51.36
73106;BME280;61559;50.476;15.588;2023-08-20T11:40:13;98152.89;;;29.16;51.36
73106;BME280;61559;50.476;15.588;2023-08-20T11:42:45;98156.06;;;29.11;50.82
73106;BME280;61559;50.476;15.588;2023-08-20T11:45:17;98153.52;;;29.02;51.00
73106;BME280;61559;50.476;15.588;2023-08-20T11:47:49;98157.33;;;28.94;51.25
73106;BME280;61559;50.476;15.588;2023-08-20T11:50:21;98153.32;;;28.90;51.36
73106;BME280;61559;50.476;15.588;2023-08-20T11:52:54;98155.61;;;28.90;51.79
73106;BME280;61559;50.476;15.588;2023-08-20T11:55:26;98156.47;;;28.85;51.88
73106;BME280;61559;50.476;15.588;2023-08-20T11:57:58;98155.34;;;28.84;50.99
73106;BME280;61559;50.476;15.588;2023-08-20T12:00:31;98154.48;;;28.82;50.83
73106;BME280;61559;50.476;15.588;2023-08-20T12:03:04;98155.95;;;28.84;51.23
73106;BME280;61559;50.476;15.588;2023-08-20T12:05:36;98154.92;;;28.90;51.17
73106;BME280;61559;50.476;15.588;2023-08-20T12:08:07;98149.73;;;28.95;50.28
73106;BME280;61559;50.476;15.588;2023-08-20T12:10:43;98145.20;;;29.01;50.42
73106;BME280;61559;50.476;15.588;2023-08-20T12:13:14;98139.86;;;29.02;51.12
73106;BME280;61559;50.476;15.588;2023-08-20T12:15:46;98137.60;;;29.06;50.65
73106;BME280;61559;50.476;15.588;2023-08-20T12:18:18;98136.27;;;29.11;51.38
73106;BME280;61559;50.476;15.588;2023-08-20T12:20:49;98136.02;;;29.15;51.81
73106;BME280;61559;50.476;15.588;2023-08-20T12:23:20;98137.31;;;29.22;51.65
73106;BME280;61559;50.476;15.588;2023-08-20T12:25:52;98133.73;;;29.28;51.20
73106;BME280;61559;50.476;15.588;2023-08-20T12:28:24;98139.49;;;29.35;51.28
73106;BME280;61559;50.476;15.588;2023-08-20T12:30:56;98138.37;;;29.38;51.07
73106;BME280;61559;50.476;15.588;2023-08-20T12:33:27;98136.17;;;29.42;50.07
73106;BME280;61559;50.476;15.588;2023-08-20T12:35:59;98140.20;;;29.47;50.32
73106;BME280;61559;50.476;15.588;2023-08-20T12:38:30;98140.14;;;29.55;48.54
73106;BME280;61559;50.476;15.588;2023-08-20T12:41:03;98137.73;;;29.70;49.10
73106;BME280;61559;50.476;15.588;2023-08-20T12:43:35;98141.06;;;29.79;49.55
73106;BME280;61559;50.476;15.588;2023-08-20T12:46:06;98140.06;;;29.89;48.73
73106;BME280;61559;50.476;15.588;2023-08-20T12:48:37;98138.41;;;30.01;49.02
73106;BME280;61559;50.476;15.588;2023-08-20T12:51:09;98132.52;;;30.14;48.99
73106;BME280;61559;50.476;15.588;2023-08-20T12:53:43;98128.49;;;30.17;48.89
73106;BME280;61559;50.476;15.588;2023-08-20T12:56:14;98125.70;;;30.19;47.83
73106;BME280;61559;50.476;15.588;2023-08-20T12:58:46;98124.90;;;30.26;48.09
73106;BME280;61559;50.476;15.588;2023-08-20T13:01:17;98122.31;;;30.36;46.68
73106;BME280;61559;50.476;15.588;2023-08-20T13:03:50;98121.44;;;30.51;46.10
73106;BME280;61559;50.476;15.588;2023-08-20T13:06:22;98112.94;;;30.62;46.54
73106;BME280;61559;50.476;15.588;2023-08-20T13:08:55;98116.17;;;30.73;47.03
73106;BME280;61559;50.476;15.588;2023-08-20T13:11:26;98119.08;;;30.83;46.06
73106;BME280;61559;50.476;15.588;2023-08-20T13:14:01;98117.30;;;30.99;45.70
73106;BME280;61559;50.476;15.588;2023-08-20T13:16:33;98111.42;;;31.12;45.02